createdAt,value
2023-04-19T00:00:51.231Z,102344.69
2023-04-19T00:01:51.059Z,102342.45
2023-04-19T00:02:51.609Z,102339.84
2023-04-19T00:03:52.155Z,102337.40
2023-04-19T00:04:52.726Z,102334.34
2023-04-19T00:05:02.390Z,102331.57
2023-04-19T00:06:02.525Z,102328.34
2023-04-19T00:07:03.036Z,102325.20
2023-04-19T00:08:03.595Z,102322.41
2023-04-19T00:09:04.459Z,102318.92
2023-04-19T00:10:04.741Z,102315.70
2023-04-19T00:11:05.343Z,102311.92
2023-04-19T00:12:05.727Z,102309.04
2023-04-19T00:13:06.310Z,102305.81
2023-04-19T00:14:06.596Z,102302.95
2023-04-19T00:15:07.079Z,102299.33
2023-04-19T00:16:07.570Z,102295.84
2023-04-19T00:16:17.409Z,102292.03
2023-04-19T00:17:17.802Z,102288.80
2023-04-19T00:18:17.762Z,102285.76
2023-04-19T00:19:18.247Z,102282.25
2023-04-19T00:20:19.110Z,102278.70
2023-04-19T00:21:20.677Z,102275.55
2023-04-19T00:22:20.091Z,102273.38
2023-04-19T00:23:21.646Z,102270.81
2023-04-19T00:24:21.541Z,102267.41
2023-04-19T00:25:22.281Z,102264.91
2023-04-19T00:26:22.492Z,102262.35
2023-04-19T00:27:23.431Z,102259.95
2023-04-19T00:27:32.722Z,102258.38
2023-04-19T00:28:33.548Z,102255.99
2023-04-19T00:29:34.154Z,102254.05
2023-04-19T00:30:34.976Z,102251.76
2023-04-19T00:31:35.599Z,102250.09
2023-04-19T00:32:36.312Z,102247.01
2023-04-19T00:33:37.151Z,102245.27
2023-04-19T00:34:37.958Z,102242.98
2023-04-19T00:35:38.444Z,102240.89
2023-04-19T00:36:38.968Z,102238.39
2023-04-19T00:37:39.788Z,102235.56
2023-04-19T00:38:40.343Z,102233.31
2023-04-19T00:39:40.823Z,102231.25
2023-04-19T00:39:49.512Z,102228.81
2023-04-19T00:40:49.878Z,102226.38
2023-04-19T00:41:50.597Z,102224.13
2023-04-19T00:42:50.930Z,102221.78
2023-04-19T00:43:51.483Z,102219.34
2023-04-19T00:44:51.985Z,102217.59
2023-04-19T00:45:52.567Z,102215.67
2023-04-19T00:46:53.043Z,102213.67
2023-04-19T00:47:53.736Z,102211.39
2023-04-19T00:48:54.247Z,102209.81
2023-04-19T00:49:54.791Z,102207.95
2023-04-19T00:50:55.316Z,102206.29
2023-04-19T00:51:04.556Z,102205.19
2023-04-19T00:52:04.853Z,102203.75
2023-04-19T00:53:05.525Z,102201.75
2023-04-19T00:54:06.087Z,102200.65
2023-04-19T00:55:06.493Z,102199.50
2023-04-19T00:56:06.558Z,102198.48
2023-04-19T00:57:07.241Z,102197.30
2023-04-19T00:58:07.771Z,102195.97
2023-04-19T00:59:08.723Z,102194.78
2023-04-19T01:00:09.197Z,102193.29
2023-04-19T01:01:10.279Z,102193.13
2023-04-19T01:02:11.197Z,102191.69
2023-04-19T01:03:12.107Z,102190.33
2023-04-19T01:03:21.716Z,102188.98
2023-04-19T01:04:22.033Z,102188.14
2023-04-19T01:05:22.727Z,102187.13
2023-04-19T01:06:23.234Z,102185.78
2023-04-19T01:07:23.719Z,102184.27
2023-04-19T01:08:24.336Z,102183.25
2023-04-19T01:09:24.865Z,102181.73
2023-04-19T01:10:25.399Z,102179.46
2023-04-19T01:11:25.977Z,102177.86
2023-04-19T01:12:26.470Z,102176.09
2023-04-19T01:13:27.249Z,102174.67
2023-04-19T01:14:27.871Z,102173.16
2023-04-19T01:14:39.073Z,102171.47
2023-04-19T01:15:39.131Z,102169.84
2023-04-19T01:16:40.847Z,102168.32
2023-04-19T01:17:40.291Z,102167.06
2023-04-19T01:18:40.774Z,102165.04
2023-04-19T01:19:41.519Z,102163.02
2023-04-19T01:20:42.331Z,102161.92
2023-04-19T01:21:42.890Z,102160.91
2023-04-19T01:22:43.371Z,102159.31
2023-04-19T01:23:43.873Z,102157.48
2023-04-19T01:24:44.517Z,102156.05
2023-04-19T01:25:44.654Z,102154.44
2023-04-19T01:26:45.252Z,102152.94
2023-04-19T01:26:56.090Z,102151.59
2023-04-19T01:27:56.479Z,102149.84
2023-04-19T01:28:56.567Z,102148.31
2023-04-19T01:29:56.877Z,102145.89
2023-04-19T01:30:57.755Z,102143.80
2023-04-19T01:31:57.970Z,102141.63
2023-04-19T01:32:58.530Z,102139.37
2023-04-19T01:33:59.080Z,102137.28
2023-04-19T01:34:59.741Z,102134.94
2023-04-19T01:36:00.210Z,102133.36
2023-04-19T01:37:00.616Z,102131.35
2023-04-19T01:38:01.084Z,102129.56
2023-04-19T01:39:01.660Z,102127.77
2023-04-19T01:39:10.807Z,102125.75
2023-04-19T01:40:11.375Z,102123.97
2023-04-19T01:41:12.324Z,102122.13
2023-04-19T01:42:12.952Z,102120.89
2023-04-19T01:43:13.448Z,102119.48
2023-04-19T01:44:14.443Z,102117.77
2023-04-19T01:45:15.521Z,102116.19
2023-04-19T01:46:14.986Z,102114.95
2023-04-19T01:47:15.462Z,102113.70
2023-04-19T01:48:15.996Z,102112.28
2023-04-19T01:49:16.052Z,102110.88
2023-04-19T01:50:16.147Z,102108.86
2023-04-19T01:50:26.051Z,102106.86
2023-04-19T01:51:26.633Z,102105.61
2023-04-19T01:52:26.800Z,102103.61
2023-04-19T01:53:27.345Z,102102.11
2023-04-19T01:54:27.899Z,102101.03
2023-04-19T01:55:28.293Z,102099.10
2023-04-19T01:56:28.991Z,102097.94
2023-04-19T01:57:29.541Z,102096.94
2023-04-19T01:58:29.968Z,102096.03
2023-04-19T01:59:30.422Z,102094.37
2023-04-19T02:00:30.768Z,102093.11
2023-04-19T02:01:31.635Z,102091.78
2023-04-19T02:01:40.469Z,102089.95
2023-04-19T02:02:41.069Z,102088.20
2023-04-19T02:03:42.152Z,102086.61
2023-04-19T02:04:42.468Z,102085.20
2023-04-19T02:05:42.585Z,102083.36
2023-04-19T02:06:42.659Z,102082.12
2023-04-19T02:07:42.608Z,102080.87
2023-04-19T02:08:43.179Z,102079.03
2023-04-19T02:09:43.714Z,102077.77
2023-04-19T02:10:44.266Z,102076.09
2023-04-19T02:11:44.296Z,102074.12
2023-04-19T02:12:45.038Z,102072.28
2023-04-19T02:13:45.600Z,102070.33
2023-04-19T02:13:55.004Z,102068.75
2023-04-19T02:14:55.437Z,102066.83
2023-04-19T02:15:56.273Z,102064.91
2023-04-19T02:16:56.870Z,102063.22
2023-04-19T02:17:57.314Z,102061.81
2023-04-19T02:18:58.158Z,102060.14
2023-04-19T02:19:58.379Z,102058.30
2023-04-19T02:20:58.779Z,102056.89
2023-04-19T02:21:59.689Z,102054.97
2023-04-19T02:23:00.173Z,102053.30
2023-04-19T02:24:01.128Z,102051.63
2023-04-19T02:25:01.758Z,102049.63
2023-04-19T02:25:10.440Z,102048.13
2023-04-19T02:26:10.885Z,102046.78
2023-04-19T02:27:11.390Z,102045.34
2023-04-19T02:28:12.275Z,102043.94
2023-04-19T02:29:13.254Z,102042.67
2023-04-19T02:30:13.808Z,102041.91
2023-04-19T02:31:14.260Z,102041.43
2023-04-19T02:32:14.798Z,102040.27
2023-04-19T02:33:15.109Z,102039.44
2023-04-19T02:34:16.337Z,102038.27
2023-04-19T02:35:16.408Z,102036.86
2023-04-19T02:36:16.869Z,102035.11
2023-04-19T02:36:25.608Z,102034.02
2023-04-19T02:37:26.401Z,102033.09
2023-04-19T02:38:26.829Z,102032.33
2023-04-19T02:39:27.374Z,102031.50
2023-04-19T02:40:28.249Z,102030.74
2023-04-19T02:41:29.223Z,102029.81
2023-04-19T02:42:29.779Z,102028.32
2023-04-19T02:43:30.609Z,102027.22
2023-04-19T02:44:31.278Z,102026.16
2023-04-19T02:45:31.929Z,102024.72
2023-04-19T02:46:32.644Z,102023.20
2023-04-19T02:47:33.074Z,102021.69
2023-04-19T02:47:45.938Z,102020.09
2023-04-19T02:48:46.141Z,102018.64
2023-04-19T02:49:46.556Z,102016.87
2023-04-19T02:50:47.012Z,102015.61
2023-04-19T02:51:47.477Z,102013.98
2023-04-19T02:52:47.854Z,102012.13
2023-04-19T02:53:47.879Z,102010.38
2023-04-19T02:54:48.382Z,102009.79
2023-04-19T02:55:49.742Z,102008.61
2023-04-19T02:56:48.714Z,102007.77
2023-04-19T02:57:49.573Z,102006.75
2023-04-19T02:58:50.060Z,102006.17
2023-04-19T02:59:50.589Z,102005.55
2023-04-19T03:00:51.093Z,102004.71
2023-04-19T03:01:01.317Z,101660.80
2023-04-19T03:02:01.732Z,102002.48
2023-04-19T03:03:02.767Z,102002.05
2023-04-19T03:04:03.094Z,102002.14
2023-04-19T03:05:03.796Z,102002.20
2023-04-19T03:06:04.359Z,102001.53
2023-04-19T03:07:04.877Z,102001.28
2023-04-19T03:08:05.260Z,101999.94
2023-04-19T03:09:05.652Z,101998.84
2023-04-19T03:10:07.302Z,101997.75
2023-04-19T03:11:06.798Z,101996.48
2023-04-19T03:12:07.235Z,101994.89
2023-04-19T03:12:16.438Z,101993.38
2023-04-19T03:13:16.864Z,101992.42
2023-04-19T03:14:17.443Z,101991.42
2023-04-19T03:15:17.861Z,101989.83
2023-04-19T03:16:18.331Z,101988.63
2023-04-19T03:17:18.906Z,101987.62
2023-04-19T03:18:19.326Z,101986.59
2023-04-19T03:19:19.859Z,101985.72
2023-04-19T03:20:20.804Z,101984.46
2023-04-19T03:21:20.878Z,101983.97
2023-04-19T03:22:21.292Z,101982.84
2023-04-19T03:23:21.848Z,101982.00
2023-04-19T03:24:22.191Z,101981.58
2023-04-19T03:24:30.871Z,101980.31
2023-04-19T03:25:31.327Z,101979.98
2023-04-19T03:26:31.687Z,101979.06
2023-04-19T03:27:32.303Z,101977.88
2023-04-19T03:28:32.801Z,101977.12
2023-04-19T03:29:32.969Z,101976.03
2023-04-19T03:30:33.741Z,101974.91
2023-04-19T03:31:34.138Z,101973.83
2023-04-19T03:32:34.390Z,101972.56
2023-04-19T03:33:34.914Z,101971.48
2023-04-19T03:34:35.356Z,101969.96
2023-04-19T03:35:36.200Z,101968.67
2023-04-19T03:35:49.354Z,101967.58
2023-04-19T03:36:49.052Z,101966.41
2023-04-19T03:37:49.670Z,101965.14
2023-04-19T03:38:50.216Z,101963.84
2023-04-19T03:39:50.656Z,101963.44
2023-04-19T03:40:50.715Z,101962.34
2023-04-19T03:41:51.109Z,101961.33
2023-04-19T03:42:53.974Z,101960.41
2023-04-19T03:43:52.192Z,101959.13
2023-04-19T03:44:52.592Z,101957.61
2023-04-19T03:45:53.105Z,101956.68
2023-04-19T03:46:53.897Z,101955.76
2023-04-19T03:47:05.650Z,101954.84
2023-04-19T03:48:06.291Z,101953.88
2023-04-19T03:49:06.716Z,101952.37
2023-04-19T03:50:07.600Z,101951.78
2023-04-19T03:51:08.153Z,101950.69
2023-04-19T03:52:08.905Z,101949.85
2023-04-19T03:53:09.397Z,101949.17
2023-04-19T03:54:10.380Z,101948.17
2023-04-19T03:55:10.405Z,101947.41
2023-04-19T03:56:10.664Z,101946.91
2023-04-19T03:57:11.085Z,101946.41
2023-04-19T03:58:11.638Z,101946.06
2023-04-19T03:58:20.782Z,101945.90
2023-04-19T03:59:21.210Z,101945.95
2023-04-19T04:00:21.932Z,101945.87
2023-04-19T04:01:22.201Z,101946.05
2023-04-19T04:02:22.770Z,101946.55
2023-04-19T04:03:23.238Z,101946.89
2023-04-19T04:04:23.635Z,101947.30
2023-04-19T04:05:24.043Z,101947.66
2023-04-19T04:06:24.460Z,101948.08
2023-04-19T04:07:25.046Z,101948.33
2023-04-19T04:08:25.525Z,101948.35
2023-04-19T04:09:26.031Z,101948.94
2023-04-19T04:09:34.812Z,101948.84
2023-04-19T04:10:35.625Z,101949.02
2023-04-19T04:11:36.124Z,101949.69
2023-04-19T04:12:36.690Z,101950.03
2023-04-19T04:13:37.193Z,101950.05
2023-04-19T04:14:38.009Z,101950.30
2023-04-19T04:15:38.002Z,101950.72
2023-04-19T04:16:38.493Z,101950.49
2023-04-19T04:17:38.843Z,101950.83
2023-04-19T04:18:39.170Z,101950.73
2023-04-19T04:19:39.266Z,101950.82
2023-04-19T04:20:39.828Z,101950.59
2023-04-19T04:20:52.581Z,101951.00
2023-04-19T04:21:52.970Z,101950.70
2023-04-19T04:22:53.377Z,101951.28
2023-04-19T04:23:54.180Z,101951.19
2023-04-19T04:24:54.420Z,101951.19
2023-04-19T04:25:55.254Z,101950.85
2023-04-19T04:26:55.590Z,101950.85
2023-04-19T04:27:56.106Z,101950.94
2023-04-19T04:28:56.503Z,101950.94
2023-04-19T04:29:56.982Z,101950.61
2023-04-19T04:30:57.654Z,101950.77
2023-04-19T04:31:58.107Z,101950.27
2023-04-19T04:32:07.441Z,101950.02
2023-04-19T04:33:07.983Z,101950.46
2023-04-19T04:34:08.211Z,101950.97
2023-04-19T04:35:08.808Z,101950.97
2023-04-19T04:36:09.920Z,101950.71
2023-04-19T04:37:09.773Z,101951.05
2023-04-19T04:38:21.387Z,101951.13
2023-04-19T04:39:10.948Z,101951.48
2023-04-19T04:40:11.442Z,101951.31
2023-04-19T04:41:11.858Z,101951.17
2023-04-19T04:42:12.082Z,101950.74
2023-04-19T04:43:13.061Z,101950.91
2023-04-19T04:44:14.026Z,101950.74
2023-04-19T04:44:25.067Z,101950.33
2023-04-19T04:45:25.257Z,101949.66
2023-04-19T04:46:25.736Z,101949.23
2023-04-19T04:47:26.350Z,101948.95
2023-04-19T04:48:26.990Z,101948.63
2023-04-19T04:49:28.143Z,101948.52
2023-04-19T04:50:28.770Z,101948.02
2023-04-19T04:51:29.682Z,101947.48
2023-04-19T04:52:30.269Z,101946.91
2023-04-19T04:53:31.263Z,101945.87
2023-04-19T04:54:32.240Z,101945.60
2023-04-19T04:55:32.792Z,101945.16
2023-04-19T04:55:42.214Z,101944.25
2023-04-19T04:56:45.137Z,101943.30
2023-04-19T04:57:43.341Z,101942.44
2023-04-19T04:58:43.783Z,101941.80
2023-04-19T04:59:43.874Z,101940.44
2023-04-19T05:00:44.622Z,101939.84
2023-04-19T05:01:45.042Z,101937.97
2023-04-19T05:02:45.569Z,101936.44
2023-04-19T05:03:46.011Z,101935.00
2023-04-19T05:04:46.544Z,101933.86
2023-04-19T05:05:47.008Z,101931.98
2023-04-19T05:06:47.883Z,101930.62
2023-04-19T05:06:58.006Z,101929.73
2023-04-19T05:07:58.479Z,101928.63
2023-04-19T05:08:59.434Z,101927.27
2023-04-19T05:10:00.337Z,101925.55
2023-04-19T05:11:00.846Z,101923.82
2023-04-19T05:12:01.257Z,101922.35
2023-04-19T05:13:02.210Z,101920.97
2023-04-19T05:14:02.706Z,101919.59
2023-04-19T05:15:03.226Z,101917.86
2023-04-19T05:16:03.234Z,101916.48
2023-04-19T05:17:04.774Z,101915.44
2023-04-19T05:18:04.192Z,101914.45
2023-04-19T05:19:04.486Z,101913.56
2023-04-19T05:19:13.297Z,101913.11
2023-04-19T05:20:13.755Z,101912.66
2023-04-19T05:21:14.262Z,101912.11
2023-04-19T05:22:14.446Z,101911.57
2023-04-19T05:23:14.952Z,101911.70
2023-04-19T05:24:15.802Z,101911.07
2023-04-19T05:25:16.343Z,101911.03
2023-04-19T05:26:16.713Z,101910.57
2023-04-19T05:27:17.129Z,101909.85
2023-04-19T05:28:17.907Z,101909.77
2023-04-19T05:29:18.697Z,101908.87
2023-04-19T05:29:30.339Z,101908.09
2023-04-19T05:30:30.727Z,101907.88
2023-04-19T05:31:31.324Z,101907.67
2023-04-19T05:32:31.758Z,101906.98
2023-04-19T05:33:32.109Z,101907.10
2023-04-19T05:34:32.441Z,101906.42
2023-04-19T05:35:32.706Z,101905.95
2023-04-19T05:36:32.685Z,101905.23
2023-04-19T05:37:33.666Z,101904.94
2023-04-19T05:38:34.235Z,101903.91
2023-04-19T05:39:34.963Z,101903.19
2023-04-19T05:40:35.449Z,101902.75
2023-04-19T05:41:35.874Z,101901.78
2023-04-19T05:42:36.837Z,101901.42
2023-04-19T05:42:45.526Z,101900.45
2023-04-19T05:43:45.916Z,101899.25
2023-04-19T05:44:46.207Z,101898.30
2023-04-19T05:45:46.691Z,101897.11
2023-04-19T05:46:47.113Z,101896.33
2023-04-19T05:47:47.647Z,101895.52
2023-04-19T05:48:48.486Z,101894.58
2023-04-19T05:49:48.976Z,101893.69
2023-04-19T05:50:49.563Z,101893.24
2023-04-19T05:51:49.357Z,101892.89
2023-04-19T05:52:49.485Z,101893.01
2023-04-19T05:53:50.406Z,101892.91
2023-04-19T05:53:59.634Z,101893.03
2023-04-19T05:55:00.488Z,101893.34
2023-04-19T05:56:00.991Z,101893.39
2023-04-19T05:57:01.406Z,101893.59
2023-04-19T05:58:01.808Z,101893.80
2023-04-19T05:59:02.373Z,101894.52
2023-04-19T06:00:03.285Z,101895.32
2023-04-19T06:01:03.589Z,101895.70
2023-04-19T06:02:04.291Z,101896.58
2023-04-19T06:03:04.776Z,101897.58
2023-04-19T06:04:05.394Z,101898.70
2023-04-19T06:05:10.010Z,101899.70
2023-04-19T06:06:06.013Z,101900.75
2023-04-19T06:07:13.554Z,101901.74
2023-04-19T06:07:30.150Z,101902.28
2023-04-19T06:08:17.460Z,101903.44
2023-04-19T06:09:17.927Z,101903.77
2023-04-19T06:10:18.898Z,101904.75
2023-04-19T06:11:26.445Z,101905.48
2023-04-19T06:12:19.515Z,101906.39
2023-04-19T06:13:19.924Z,101906.95
2023-04-19T06:14:20.363Z,101908.79
2023-04-19T06:15:21.306Z,101909.52
2023-04-19T06:16:22.057Z,101910.42
2023-04-19T06:17:22.866Z,101912.04
2023-04-19T06:18:23.071Z,101912.69
2023-04-19T06:19:23.608Z,101913.88
2023-04-19T06:20:24.030Z,101915.53
2023-04-19T06:20:33.214Z,101916.46
2023-04-19T06:21:34.155Z,101917.78
2023-04-19T06:22:34.527Z,101918.97
2023-04-19T06:23:34.819Z,101920.38
2023-04-19T06:24:35.504Z,101921.45
2023-04-19T06:25:35.505Z,101922.86
2023-04-19T06:26:35.987Z,101923.38
2023-04-19T06:27:36.215Z,101924.36
2023-04-19T06:28:36.766Z,101925.59
2023-04-19T06:29:37.154Z,101926.37
2023-04-19T06:30:37.365Z,101927.19
2023-04-19T06:31:38.418Z,101927.30
2023-04-19T06:32:38.427Z,101927.78
2023-04-19T06:32:51.816Z,101928.19
2023-04-19T06:33:52.246Z,101929.48
2023-04-19T06:34:52.528Z,101931.16
2023-04-19T06:35:53.115Z,101932.13
2023-04-19T06:36:54.082Z,101933.17
2023-04-19T06:37:54.616Z,101933.75
2023-04-19T06:38:55.401Z,101934.13
2023-04-19T06:39:56.052Z,101934.59
2023-04-19T06:40:56.186Z,101934.67
2023-04-19T06:41:56.642Z,101935.22
2023-04-19T06:42:57.217Z,101935.52
2023-04-19T06:43:57.833Z,101935.81
2023-04-19T06:44:58.395Z,101935.59
2023-04-19T06:45:09.575Z,101935.44
2023-04-19T06:46:10.262Z,101935.55
2023-04-19T06:47:10.871Z,101935.34
2023-04-19T06:48:11.777Z,101935.13
2023-04-19T06:49:12.210Z,101935.08
2023-04-19T06:50:12.933Z,101934.66
2023-04-19T06:51:13.340Z,101934.36
2023-04-19T06:52:14.370Z,101934.31
2023-04-19T06:53:14.033Z,101933.93
2023-04-19T06:54:14.295Z,101933.55
2023-04-19T06:55:14.628Z,101932.45
2023-04-19T06:56:15.000Z,101932.15
2023-04-19T06:57:15.363Z,101931.94
2023-04-19T06:58:15.989Z,101931.72
2023-04-19T06:58:27.679Z,101931.50
2023-04-19T06:59:28.313Z,101931.76
2023-04-19T07:00:29.003Z,101932.50
2023-04-19T07:01:29.492Z,101933.33
2023-04-19T07:02:29.996Z,101935.05
2023-04-19T07:03:30.410Z,101936.04
2023-04-19T07:04:30.820Z,101937.64
2023-04-19T07:05:30.590Z,101939.03
2023-04-19T07:06:31.228Z,101940.51
2023-04-19T07:07:31.268Z,101941.55
2023-04-19T07:08:46.468Z,101943.62
2023-04-19T07:09:33.076Z,101944.38
2023-04-19T07:09:42.768Z,101848.79
2023-04-19T07:10:42.945Z,101971.39
2023-04-19T07:11:43.835Z,101971.64
2023-04-19T07:12:44.252Z,101971.90
2023-04-19T07:13:44.271Z,101972.37
2023-04-19T07:14:44.415Z,101973.28
2023-04-19T07:15:44.965Z,101974.19
2023-04-19T07:16:45.887Z,101975.34
2023-04-19T07:17:45.843Z,101976.33
2023-04-19T07:18:46.688Z,101977.91
2023-04-19T07:19:47.394Z,101979.32
2023-04-19T07:20:47.922Z,101981.20
2023-04-19T07:21:48.888Z,101982.28
2023-04-19T07:22:49.579Z,101984.03
2023-04-19T07:23:50.361Z,101984.91
2023-04-19T07:24:50.911Z,101986.41
2023-04-19T07:25:02.199Z,101816.59
2023-04-19T07:26:02.398Z,102016.23
2023-04-19T07:27:03.202Z,102015.39
2023-04-19T07:28:03.548Z,102015.31
2023-04-19T07:29:04.149Z,102015.05
2023-04-19T07:30:05.039Z,102015.14
2023-04-19T07:31:05.973Z,102015.48
2023-04-19T07:32:06.147Z,102015.98
2023-04-19T07:33:07.067Z,102016.74
2023-04-19T07:34:07.341Z,102016.18
2023-04-19T07:35:07.425Z,102016.09
2023-04-19T07:36:07.656Z,102016.27
2023-04-19T07:37:08.520Z,102016.57
2023-04-19T07:38:10.008Z,102016.49
2023-04-19T07:39:09.600Z,102017.03
2023-04-19T07:39:18.318Z,101887.61
2023-04-19T07:40:19.017Z,102024.27
2023-04-19T07:41:19.594Z,102024.18
2023-04-19T07:42:20.291Z,102024.02
2023-04-19T07:43:20.283Z,102025.17
2023-04-19T07:44:20.953Z,102026.06
2023-04-19T07:45:21.407Z,102026.92
2023-04-19T07:46:22.026Z,102028.66
2023-04-19T07:47:22.196Z,102030.33
2023-04-19T07:48:22.628Z,102031.97
2023-04-19T07:49:22.722Z,102033.89
2023-04-19T07:50:23.384Z,102035.69
2023-04-19T07:51:24.183Z,102037.78
2023-04-19T07:51:33.406Z,101853.30
2023-04-19T07:52:34.013Z,102064.35
2023-04-19T07:53:34.827Z,102064.09
2023-04-19T07:54:35.157Z,102063.81
2023-04-19T07:55:35.152Z,102063.98
2023-04-19T07:56:36.072Z,102064.97
2023-04-19T07:57:36.290Z,102066.41
2023-04-19T07:59:06.882Z,102069.03
2023-04-19T07:59:57.022Z,102071.91
2023-04-19T08:00:57.870Z,102073.70
2023-04-19T08:01:58.227Z,102075.70
2023-04-19T08:02:58.947Z,102076.77
2023-04-19T08:03:59.091Z,102078.17
2023-04-19T08:04:08.410Z,102119.50
2023-04-19T08:05:08.329Z,102104.09
2023-04-19T08:06:09.096Z,102103.75
2023-04-19T08:07:09.497Z,102103.55
2023-04-19T08:08:09.754Z,102103.94
2023-04-19T08:09:10.328Z,102104.25
2023-04-19T08:10:10.654Z,102104.76
2023-04-19T08:11:11.466Z,102105.30
2023-04-19T08:12:17.179Z,102105.77
2023-04-19T08:13:12.468Z,102107.05
2023-04-19T08:14:25.959Z,102107.95
2023-04-19T08:15:29.169Z,102109.61
2023-04-19T08:16:41.864Z,102111.28
2023-04-19T08:17:05.869Z,102143.69
2023-04-19T08:17:27.973Z,102127.64
2023-04-19T08:18:24.086Z,102126.97
2023-04-19T08:19:24.628Z,102127.48
2023-04-19T08:20:25.114Z,102127.53
2023-04-19T08:21:31.345Z,102128.77
2023-04-19T08:22:26.374Z,102128.91
2023-04-19T08:23:34.726Z,102130.36
2023-04-19T08:24:27.286Z,102131.59
2023-04-19T08:25:27.435Z,102133.52
2023-04-19T08:26:28.034Z,102135.52
2023-04-19T08:27:28.386Z,102137.47
2023-04-19T08:28:28.850Z,102140.15
2023-04-19T08:29:29.720Z,102143.25
2023-04-19T08:29:41.979Z,102194.98
2023-04-19T08:30:42.170Z,102181.84
2023-04-19T08:31:42.618Z,102181.50
2023-04-19T08:32:43.072Z,102181.50
2023-04-19T08:33:44.471Z,102181.93
2023-04-19T08:34:43.580Z,102182.07
2023-04-19T08:35:44.134Z,102182.37
2023-04-19T08:36:51.823Z,102182.72
2023-04-19T08:37:44.893Z,102183.13
2023-04-19T08:38:49.218Z,102183.23
2023-04-19T08:39:47.082Z,102184.20
2023-04-19T08:40:46.484Z,102186.02
2023-04-19T08:41:52.878Z,102188.30
2023-04-19T08:42:06.960Z,102221.75
2023-04-19T08:42:58.734Z,102219.27
2023-04-19T08:43:59.478Z,102219.95
2023-04-19T08:46:00.815Z,102220.86
2023-04-19T08:47:02.238Z,102222.53
2023-04-19T08:48:02.366Z,102223.63
2023-04-19T08:49:02.154Z,102224.21
2023-04-19T08:51:05.443Z,102227.70
2023-04-19T08:52:03.504Z,102229.48
2023-04-19T08:53:16.208Z,102230.84
2023-04-19T08:54:13.526Z,102254.08
2023-04-19T08:55:14.061Z,102254.29
2023-04-19T08:56:21.001Z,102255.01
2023-04-19T08:57:15.137Z,102254.52
2023-04-19T08:58:28.451Z,102254.72
2023-04-19T08:59:18.585Z,102254.89
2023-04-19T09:00:17.076Z,102254.98
2023-04-19T09:01:33.094Z,102255.11
2023-04-19T09:02:18.084Z,102255.28
2023-04-19T09:03:18.959Z,102256.09
2023-04-19T09:04:34.693Z,102256.22
2023-04-19T09:05:28.149Z,102234.31
2023-04-19T09:06:29.209Z,102235.69
2023-04-19T09:07:29.284Z,102236.80
2023-04-19T09:08:30.155Z,102237.26
2023-04-19T09:10:31.629Z,102238.77
2023-04-19T09:11:31.091Z,102239.70
2023-04-19T09:12:31.526Z,102240.47
2023-04-19T09:13:32.444Z,102240.77
2023-04-19T09:14:33.894Z,102240.98
2023-04-19T09:15:33.855Z,102240.89
2023-04-19T09:15:53.668Z,102219.70
2023-04-19T09:16:52.615Z,102220.63
2023-04-19T09:17:53.430Z,102221.73
2023-04-19T09:19:02.416Z,102223.01
2023-04-19T09:19:54.949Z,102223.64
2023-04-19T09:20:55.828Z,102224.43
2023-04-19T09:21:56.591Z,102224.68
2023-04-19T09:22:57.174Z,102225.27
2023-04-19T09:23:57.753Z,102225.56
2023-04-19T09:26:22.320Z,102226.14
2023-04-19T09:26:59.838Z,102226.56
2023-04-19T09:27:08.674Z,102210.38
2023-04-19T09:28:09.153Z,102211.23
2023-04-19T09:29:09.294Z,102212.92
2023-04-19T09:30:17.602Z,102213.55
2023-04-19T09:31:24.112Z,102214.83
2023-04-19T09:32:11.688Z,102215.63
2023-04-19T09:33:12.253Z,102216.42
2023-04-19T09:34:12.952Z,102217.17
2023-04-19T09:35:13.523Z,102217.97
2023-04-19T09:36:14.772Z,102218.42
2023-04-19T09:37:21.413Z,102218.76
2023-04-19T09:38:15.680Z,102219.00
2023-04-19T09:38:24.917Z,101781.97
2023-04-19T09:39:25.831Z,102221.39
2023-04-19T09:40:26.668Z,102220.70
2023-04-19T09:41:26.880Z,102220.63
2023-04-19T09:42:47.353Z,102220.32
2023-04-19T09:45:01.790Z,102220.00
2023-04-19T09:45:30.488Z,102219.99
2023-04-19T09:46:28.828Z,102219.39
2023-04-19T09:47:29.308Z,102219.43
2023-04-19T09:48:29.680Z,102219.08
2023-04-19T09:49:41.681Z,102218.86
2023-04-19T09:50:31.808Z,102218.81
2023-04-19T09:51:30.361Z,102219.09
2023-04-19T09:51:40.034Z,101843.87
2023-04-19T09:52:40.265Z,102211.98
2023-04-19T09:53:40.617Z,102211.30
2023-04-19T09:54:41.570Z,102211.35
2023-04-19T09:55:57.245Z,102210.84
2023-04-19T09:56:42.561Z,102210.64
2023-04-19T09:57:44.302Z,102210.69
2023-04-19T09:58:51.018Z,102210.42
2023-04-19T09:59:44.292Z,102209.96
2023-04-19T10:00:50.092Z,102210.44
2023-04-19T10:01:45.208Z,102209.72
2023-04-19T10:02:45.831Z,102208.58
2023-04-19T10:02:54.638Z,102194.69
2023-04-19T10:03:55.891Z,102195.20
2023-04-19T10:05:11.203Z,102195.94
2023-04-19T10:05:57.320Z,102195.94
2023-04-19T10:07:19.374Z,102196.94
2023-04-19T10:07:59.628Z,102197.81
2023-04-19T10:08:57.668Z,102198.08
2023-04-19T10:10:02.382Z,102198.39
2023-04-19T10:10:59.266Z,102198.54
2023-04-19T10:12:06.605Z,102199.19
2023-04-19T10:13:16.047Z,102199.87
2023-04-19T10:14:00.141Z,102200.10
2023-04-19T10:15:00.696Z,102200.20
2023-04-19T10:15:09.400Z,101849.80
2023-04-19T10:16:18.956Z,102202.20
2023-04-19T10:17:10.128Z,102202.37
2023-04-19T10:18:10.757Z,102201.81
2023-04-19T10:19:10.921Z,102202.45
2023-04-19T10:20:11.507Z,102202.49
2023-04-19T10:21:11.839Z,102202.28
2023-04-19T10:22:12.674Z,102202.02
2023-04-19T10:23:13.146Z,102202.41
2023-04-19T10:24:14.020Z,102202.23
2023-04-19T10:25:14.732Z,102202.14
2023-04-19T10:26:15.093Z,102201.97
2023-04-19T10:27:16.026Z,102201.66
2023-04-19T10:28:16.605Z,102201.23
2023-04-19T10:29:17.318Z,102200.93
2023-04-19T10:29:28.035Z,102185.48
2023-04-19T10:30:28.171Z,102186.16
2023-04-19T10:31:28.301Z,102186.88
2023-04-19T10:32:28.899Z,102187.30
2023-04-19T10:33:29.377Z,102187.63
2023-04-19T10:34:29.942Z,102188.14
2023-04-19T10:35:30.221Z,102188.27
2023-04-19T10:36:30.483Z,102189.20
2023-04-19T10:37:31.365Z,102189.16
2023-04-19T10:38:31.888Z,102190.19
2023-04-19T10:39:32.350Z,102189.77
2023-04-19T10:40:32.469Z,102189.98
2023-04-19T10:41:33.201Z,102190.69
2023-04-19T10:41:42.891Z,101791.78
2023-04-19T10:42:43.707Z,102192.84
2023-04-19T10:43:44.213Z,102192.68
2023-04-19T10:44:44.641Z,102191.95
2023-04-19T10:45:45.184Z,102191.73
2023-04-19T10:46:45.666Z,102191.27
2023-04-19T10:47:46.579Z,102191.48
2023-04-19T10:49:16.175Z,102143.91
2023-04-19T10:50:15.771Z,102180.75
2023-04-19T10:51:16.745Z,102180.92
2023-04-19T10:52:17.499Z,102181.14
2023-04-19T10:53:18.163Z,102181.73